Flight Track Log - Related Links

Times and Time Zones

All times are in EDT time to prevent confusion due to time zone crossing. See the EJA846 flight status page for this flight to view local times or setup timezone preferences in your user account.

Time Position Orientation Groundspeed Altitude Reporting Facility
EDT Latitude Longitude Course Direction KTS MPH feet Rate Location/Type
Thu 03:00:13 PM 41.2333 -72.8833 228° Southwest 181 208 1,500  Level New York TRACON
Thu 03:01:13 PM 41.2000 -72.9333 228° Southwest 215 247 2,600 1,930 Climbing New York TRACON
Thu 03:02:08 PM 41.2167 -73.0167 285° West 247 284 5,200 1,736 Climbing New York TRACON
Thu 03:03:14 PM 41.2167 -73.1333 270° West 285 328 6,100 450 Climbing New York TRACON
Thu 03:04:08 PM 41.2333 -73.2333 283° West 287 330 6,100  Level New York TRACON
Thu 03:05:14 PM 41.2500 -73.3333 283° West 288 331 6,100  Level New York TRACON
Thu 03:06:08 PM 41.2667 -73.4333 283° West 290 334 6,100  Level New York TRACON
Thu 03:07:14 PM 41.2833 -73.5500 281° West 284 327 6,100  Level New York TRACON
Thu 03:08:08 PM 41.2667 -73.6500 258° West 280 322 6,100 -800 Level New York TRACON
Thu 03:09:14 PM 41.2667 -73.7500 270° West 269 310 4,500 -1,000 Descending New York TRACON
Thu 03:10:08 PM 41.2500 -73.8500 258° West 257 296 4,100 -200 Descending New York TRACON
Thu 03:11:14 PM 41.2500 -73.9500 270° West 270 311 4,100  Level New York TRACON
Thu 03:12:08 PM 41.2333 -74.0333 255° West 271 312 4,100  Level New York TRACON
Thu 03:13:09 PM 41.2333 -74.1333 270° West 270 311 4,100  Level New York TRACON
Thu 03:14:09 PM 41.2000 -74.2167 242° Southwest 251 289 4,100 -250 Level New York TRACON
Thu 03:15:09 PM 41.1500 -74.2833 225° Southwest 241 277 3,600 -476 Descending New York TRACON
Thu 03:16:15 PM 41.1000 -74.3500 225° Southwest 241 277 3,100 -250 Descending New York TRACON
Thu 03:17:09 PM 41.0667 -74.4000 229° Southwest 213 245 3,100  Level New York TRACON
Thu 03:18:15 PM 41.0333 -74.3167 118° Southeast 200 230 3,100  Level New York TRACON
Thu 03:19:15 PM 41.0333 -74.2500 90° East 196 226 3,100 -526 Level New York TRACON
Thu 03:20:09 PM 41.0333 -74.1833 90° East 207 238 2,100 -526 Descending New York TRACON
Thu 03:21:09 PM 41.0333 -74.1167 90° East 207 238 2,100  Level New York TRACON
Thu 03:22:09 PM 41.0000 -74.0667 131° Southeast 185 213 2,100  Level New York TRACON
Thu 03:23:09 PM 40.9667 -74.0500 159° South 160 184 2,100 -400 Level New York TRACON
Thu 03:24:09 PM 40.9167 -74.0500 180° South 135 155 1,300 -700 Descending New York TRACON
Thu 03:25:09 PM 40.8833 -74.0500 180° South 110 127 700 -600 Descending New York TRACON
Thu 03:27:00 PM 40.8500 -74.0500 180° South  Level FlightAware Approximate
Thu 03:34:00 PM 40.8501 -74.0608 180° South  Level Estimated
Thu 03:35:00 PM 40.8501 -74.0608 180° South  Level Estimated

Login

Don't have an account? Register now (free) for customized features, flight alerts, and more!